createdAt,value
2023-04-14T00:02:29.078Z,7.60
2023-04-14T00:05:32.114Z,7.70
2023-04-14T00:08:34.234Z,7.80
2023-04-14T00:11:36.518Z,7.90
2023-04-14T00:14:38.630Z,7.70
2023-04-14T00:17:40.857Z,7.60
2023-04-14T00:20:42.931Z,7.40
2023-04-14T00:23:44.878Z,7.40
2023-04-14T00:26:46.943Z,7.50
2023-04-14T00:29:48.938Z,7.70
2023-04-14T00:32:53.491Z,7.90
2023-04-14T00:35:55.502Z,8.10
2023-04-14T00:38:57.673Z,8.10
2023-04-14T00:42:02.109Z,8.20
2023-04-14T00:45:05.191Z,8.20
2023-04-14T00:48:09.623Z,8.00
2023-04-14T00:51:12.290Z,8.10
2023-04-14T00:54:18.051Z,8.20
2023-04-14T00:57:20.265Z,8.20
2023-04-14T01:00:23.222Z,8.00
2023-04-14T01:03:26.435Z,8.00
2023-04-14T01:06:29.094Z,8.00
2023-04-14T01:09:31.195Z,7.90
2023-04-14T01:12:54.534Z,7.90
2023-04-14T01:16:01.286Z,8.00
2023-04-14T01:19:25.382Z,7.90
2023-04-14T01:22:32.002Z,7.80
2023-04-14T01:25:57.944Z,7.80
2023-04-14T01:29:03.279Z,7.80
2023-04-14T01:32:11.669Z,7.70
2023-04-14T01:35:52.875Z,7.80
2023-04-14T01:38:57.295Z,7.90
2023-04-14T01:41:59.425Z,8.00
2023-04-14T01:45:10.797Z,8.00
2023-04-14T01:48:14.711Z,8.00
2023-04-14T01:51:19.860Z,8.00
2023-04-14T01:54:24.555Z,8.10
2023-04-14T01:57:29.617Z,8.10
2023-04-14T02:00:33.531Z,8.20
2023-04-14T02:03:39.820Z,8.20
2023-04-14T02:06:42.648Z,8.30
2023-04-14T02:09:45.664Z,8.20
2023-04-14T02:12:51.308Z,8.10
2023-04-14T02:15:53.557Z,8.20
2023-04-14T02:18:55.792Z,8.00
2023-04-14T02:21:58.980Z,8.00
2023-04-14T02:25:01.686Z,8.10
2023-04-14T02:28:16.262Z,8.00
2023-04-14T02:31:23.494Z,8.10
2023-04-14T02:34:30.145Z,8.00
2023-04-14T02:37:40.815Z,7.90
2023-04-14T02:40:45.391Z,7.90
2023-04-14T02:43:55.782Z,7.90
2023-04-14T02:47:03.534Z,7.90
2023-04-14T02:50:12.795Z,7.90
2023-04-14T02:53:21.976Z,7.90
2023-04-14T02:56:31.125Z,7.90
2023-04-14T02:59:34.780Z,7.90
2023-04-14T03:02:45.971Z,7.90
2023-04-14T03:05:48.766Z,7.80
2023-04-14T03:08:52.240Z,7.80
2023-04-14T03:11:59.174Z,7.70
2023-04-14T03:15:02.439Z,7.70
2023-04-14T03:18:06.485Z,7.70
2023-04-14T03:21:09.732Z,7.60
2023-04-14T03:24:14.794Z,7.50
2023-04-14T03:27:25.054Z,7.60
2023-04-14T03:30:30.541Z,7.60
2023-04-14T03:33:34.325Z,7.50
2023-04-14T03:36:37.285Z,7.50
2023-04-14T03:39:40.559Z,7.50
2023-04-14T03:42:45.454Z,7.40
2023-04-14T03:45:52.621Z,7.40
2023-04-14T03:48:55.818Z,7.50
2023-04-14T03:52:06.518Z,7.40
2023-04-14T03:55:11.658Z,7.50
2023-04-14T03:58:18.309Z,7.40
2023-04-14T04:01:25.206Z,7.40
2023-04-14T04:04:29.118Z,7.40
2023-04-14T04:07:32.760Z,7.40
2023-04-14T04:10:35.794Z,7.40
2023-04-14T04:13:39.486Z,7.40
2023-04-14T04:16:44.483Z,7.30
2023-04-14T04:19:50.002Z,7.40
2023-04-14T04:22:55.675Z,7.40
2023-04-14T04:25:58.724Z,7.30
2023-04-14T04:29:08.026Z,7.30
2023-04-14T04:32:10.271Z,7.40
2023-04-14T04:35:13.030Z,7.30
2023-04-14T04:38:17.539Z,7.20
2023-04-14T04:41:25.584Z,7.20
2023-04-14T04:44:28.824Z,7.30
2023-04-14T04:47:30.890Z,7.40
2023-04-14T04:50:33.084Z,7.30
2023-04-14T04:53:35.058Z,7.30
2023-04-14T04:56:37.042Z,7.20
2023-04-14T04:59:39.222Z,7.20
2023-04-14T05:02:41.395Z,7.20
2023-04-14T05:05:43.635Z,7.30
2023-04-14T05:08:45.788Z,7.30
2023-04-14T05:12:00.243Z,7.30
2023-04-14T05:15:03.738Z,7.40
2023-04-14T05:18:06.278Z,7.40
2023-04-14T05:21:13.235Z,7.50
2023-04-14T05:24:15.309Z,7.40
2023-04-14T05:27:17.528Z,7.50
2023-04-14T05:30:19.530Z,7.50
2023-04-14T05:33:21.906Z,7.70
2023-04-14T05:36:24.377Z,7.70
2023-04-14T05:39:26.604Z,7.70
2023-04-14T05:42:28.601Z,7.90
2023-04-14T05:45:30.594Z,7.90
2023-04-14T05:48:32.672Z,8.00
2023-04-14T05:51:34.685Z,8.10
2023-04-14T05:54:36.709Z,8.30
2023-04-14T05:57:41.288Z,8.30
2023-04-14T06:00:43.424Z,8.50
2023-04-14T06:03:48.755Z,8.60
2023-04-14T06:06:51.110Z,8.70
2023-04-14T06:09:53.346Z,9.00
2023-04-14T06:12:55.341Z,9.50
2023-04-14T06:15:57.400Z,9.90
2023-04-14T06:19:02.852Z,10.40
2023-04-14T06:22:05.062Z,10.90
2023-04-14T06:25:08.192Z,11.40
2023-04-14T06:28:10.213Z,12.00
2023-04-14T06:31:12.173Z,12.50
2023-04-14T06:34:14.211Z,12.80
2023-04-14T06:37:16.216Z,13.40
2023-04-14T06:40:18.387Z,13.90
2023-04-14T06:43:20.445Z,14.40
2023-04-14T06:46:22.950Z,14.70
2023-04-14T06:49:25.256Z,14.90
2023-04-14T06:52:29.540Z,15.40
2023-04-14T06:55:31.603Z,15.90
2023-04-14T06:58:33.853Z,16.20
2023-04-14T07:01:36.005Z,16.20
2023-04-14T07:04:38.098Z,16.90
2023-04-14T07:07:43.472Z,17.00
2023-04-14T07:10:47.822Z,17.40
2023-04-14T07:13:49.818Z,18.00
2023-04-14T07:16:52.625Z,18.20
2023-04-14T07:19:54.588Z,18.30
2023-04-14T07:22:56.605Z,18.50
2023-04-14T07:25:59.853Z,18.80
2023-04-14T07:29:01.954Z,19.00
2023-04-14T07:32:04.080Z,19.20
2023-04-14T07:35:07.335Z,19.00
2023-04-14T07:38:09.578Z,19.40
2023-04-14T07:41:11.878Z,19.50
2023-04-14T07:44:13.935Z,19.70
2023-04-14T07:47:16.480Z,19.60
2023-04-14T07:50:19.901Z,20.00
2023-04-14T07:53:22.560Z,20.00
2023-04-14T07:56:24.565Z,19.50
2023-04-14T07:59:26.536Z,19.80
2023-04-14T08:02:29.514Z,19.70
2023-04-14T08:05:31.790Z,19.60
2023-04-14T08:08:34.881Z,19.50
2023-04-14T08:11:36.880Z,20.10
2023-04-14T08:14:38.892Z,20.30
2023-04-14T08:17:40.883Z,20.10
2023-04-14T08:20:42.772Z,20.40
2023-04-14T08:23:44.825Z,20.00
2023-04-14T08:26:48.000Z,20.70
2023-04-14T08:29:49.983Z,20.80
2023-04-14T08:32:51.970Z,20.90
2023-04-14T08:35:59.565Z,20.90
2023-04-14T08:39:02.547Z,20.90
2023-04-14T08:42:04.890Z,21.10
2023-04-14T08:45:07.563Z,21.30
2023-04-14T08:48:11.770Z,21.10
2023-04-14T08:51:28.597Z,21.40
2023-04-14T08:54:31.400Z,21.40
2023-04-14T08:57:33.908Z,21.60
2023-04-14T09:00:36.215Z,21.50
2023-04-14T09:03:38.937Z,21.80
2023-04-14T09:06:41.156Z,22.00
2023-04-14T09:09:46.325Z,22.00
2023-04-14T09:12:49.008Z,21.60
2023-04-14T09:15:51.183Z,21.90
2023-04-14T09:19:01.561Z,22.40
2023-04-14T09:22:19.655Z,21.90
2023-04-14T09:25:22.378Z,22.30
2023-04-14T09:28:25.623Z,22.30
2023-04-14T09:31:27.932Z,22.40
2023-04-14T09:34:30.390Z,22.10
2023-04-14T09:37:45.658Z,22.40
2023-04-14T09:40:48.004Z,21.90
2023-04-14T09:43:50.849Z,22.50
2023-04-14T09:47:07.092Z,22.20
2023-04-14T09:50:09.628Z,21.60
2023-04-14T09:53:29.612Z,21.90
2023-04-14T09:56:34.731Z,21.90
2023-04-14T09:59:38.988Z,21.90
2023-04-14T10:02:59.171Z,22.40
2023-04-14T10:06:01.525Z,22.00
2023-04-14T10:09:04.645Z,21.90
2023-04-14T10:12:11.699Z,22.20
2023-04-14T10:15:13.816Z,22.00
2023-04-14T10:18:16.454Z,22.00
2023-04-14T10:21:18.672Z,22.50
2023-04-14T10:24:21.760Z,21.70
2023-04-14T10:27:26.961Z,22.10
2023-04-14T10:30:29.150Z,21.90
2023-04-14T10:33:31.270Z,22.50
2023-04-14T10:36:33.293Z,22.30
2023-04-14T10:39:35.447Z,21.30
2023-04-14T10:42:53.991Z,21.30
2023-04-14T10:45:56.942Z,21.00
2023-04-14T10:48:59.231Z,20.30
2023-04-14T11:03:26.170Z,21.50
2023-04-14T11:06:48.556Z,20.70
2023-04-14T11:09:50.566Z,20.40
2023-04-14T11:12:56.828Z,21.20
2023-04-14T11:16:07.863Z,20.70
2023-04-14T11:19:15.883Z,20.30
2023-04-14T11:22:37.561Z,20.50
2023-04-14T11:25:42.330Z,20.10
2023-04-14T11:28:45.758Z,20.40
2023-04-14T11:32:06.134Z,19.70
2023-04-14T11:35:08.590Z,18.70
2023-04-14T11:38:15.678Z,18.20
2023-04-14T11:41:17.785Z,18.10
2023-04-14T11:44:20.182Z,17.90
2023-04-14T11:47:22.674Z,18.20
2023-04-14T11:50:28.283Z,18.30
2023-04-14T11:53:30.286Z,18.20
2023-04-14T11:56:32.687Z,18.50
2023-04-14T11:59:45.347Z,18.90
2023-04-14T12:02:47.824Z,19.20
2023-04-14T12:05:50.192Z,19.40
2023-04-14T12:08:53.044Z,18.40
2023-04-14T12:11:55.184Z,18.50
2023-04-14T12:14:57.118Z,18.90
2023-04-14T12:18:02.324Z,19.50
2023-04-14T12:21:07.281Z,19.20
2023-04-14T12:24:11.645Z,19.40
2023-04-14T12:27:18.310Z,18.90
2023-04-14T12:30:23.694Z,18.90
2023-04-14T12:33:27.867Z,18.90
2023-04-14T12:36:45.395Z,19.40
2023-04-14T12:39:59.453Z,19.50
2023-04-14T12:43:01.720Z,19.50
2023-04-14T12:46:05.569Z,19.20
2023-04-14T12:49:28.794Z,19.10
2023-04-14T12:52:39.512Z,19.30
2023-04-14T12:55:41.508Z,19.40
2023-04-14T12:58:45.151Z,19.40
2023-04-14T13:01:47.176Z,19.30
2023-04-14T13:04:49.491Z,19.40
2023-04-14T13:07:51.506Z,19.20
2023-04-14T13:10:56.910Z,19.20
2023-04-14T13:13:58.879Z,18.90
2023-04-14T13:17:03.452Z,18.90
2023-04-14T13:20:06.249Z,18.50
2023-04-14T13:23:08.271Z,18.70
2023-04-14T13:26:11.072Z,19.20
2023-04-14T13:29:12.996Z,19.20
2023-04-14T13:32:15.054Z,18.90
2023-04-14T13:35:17.231Z,19.10
2023-04-14T13:38:19.171Z,18.80
2023-04-14T13:41:21.147Z,18.80
2023-04-14T13:44:23.343Z,18.70
2023-04-14T13:47:25.813Z,18.90
2023-04-14T13:50:28.211Z,18.80
2023-04-14T13:53:30.406Z,18.50
2023-04-14T13:56:33.014Z,18.60
2023-04-14T13:59:35.041Z,18.40
2023-04-14T14:02:38.011Z,18.30
2023-04-14T14:05:40.242Z,18.60
2023-04-14T14:08:42.946Z,18.90
2023-04-14T14:11:45.058Z,18.60
2023-04-14T14:14:47.279Z,18.70
2023-04-14T14:17:49.580Z,18.70
2023-04-14T14:20:51.630Z,18.60
2023-04-14T14:23:53.692Z,18.40
2023-04-14T14:26:55.672Z,18.40
2023-04-14T14:29:57.686Z,18.50
2023-04-14T14:33:02.300Z,18.40
2023-04-14T14:36:05.262Z,18.40
2023-04-14T14:39:07.340Z,18.00
2023-04-14T14:42:09.487Z,18.10
2023-04-14T14:45:11.770Z,18.00
2023-04-14T14:48:16.004Z,18.10
2023-04-14T14:51:18.010Z,18.20
2023-04-14T14:54:19.922Z,17.80
2023-04-14T14:57:21.927Z,18.10
2023-04-14T15:00:23.994Z,18.10
2023-04-14T15:03:29.212Z,18.00
2023-04-14T15:06:33.353Z,18.00
2023-04-14T15:09:35.340Z,18.10
2023-04-14T15:12:37.346Z,18.00
2023-04-14T15:15:39.406Z,18.00
2023-04-14T15:18:41.996Z,18.00
2023-04-14T15:21:43.956Z,17.80
2023-04-14T15:24:46.236Z,17.90
2023-04-14T15:27:49.018Z,17.80
2023-04-14T15:30:51.048Z,17.70
2023-04-14T15:33:53.168Z,17.90
2023-04-14T15:36:55.295Z,18.00
2023-04-14T15:39:57.352Z,17.90
2023-04-14T15:42:59.311Z,17.70
2023-04-14T15:46:02.131Z,17.50
2023-04-14T15:49:04.206Z,17.40
2023-04-14T15:52:06.179Z,17.30
2023-04-14T15:55:10.155Z,17.20
2023-04-14T15:58:12.193Z,17.40
2023-04-14T16:01:14.210Z,17.40
2023-04-14T16:04:16.792Z,17.40
2023-04-14T16:07:18.807Z,17.40
2023-04-14T16:10:21.454Z,17.40
2023-04-14T16:16:37.746Z,17.40
2023-04-14T16:19:40.367Z,17.20
2023-04-14T16:22:42.442Z,17.10
2023-04-14T16:25:49.064Z,17.10
2023-04-14T16:28:51.944Z,17.00
2023-04-14T16:32:00.287Z,17.00
2023-04-14T16:35:11.749Z,17.00
2023-04-14T16:38:14.278Z,17.00
2023-04-14T16:41:18.187Z,16.90
2023-04-14T16:44:20.438Z,16.90
2023-04-14T16:47:27.140Z,16.90
2023-04-14T16:50:47.601Z,16.80
2023-04-14T16:54:03.899Z,16.80
2023-04-14T16:57:13.290Z,16.70
2023-04-14T17:00:21.876Z,16.90
2023-04-14T17:03:25.918Z,16.80
2023-04-14T17:06:29.524Z,16.80
2023-04-14T17:09:39.053Z,16.80
2023-04-14T17:12:41.386Z,16.70
2023-04-14T17:15:44.809Z,16.60
2023-04-14T17:18:49.475Z,16.50
2023-04-14T17:22:05.863Z,16.50
2023-04-14T17:25:13.751Z,16.40
2023-04-14T17:28:22.339Z,16.40
2023-04-14T17:31:25.874Z,16.40
2023-04-14T17:34:31.880Z,16.10
2023-04-14T17:37:36.437Z,16.20
2023-04-14T17:40:41.593Z,16.10
2023-04-14T17:43:44.327Z,16.00
2023-04-14T17:46:46.690Z,15.90
2023-04-14T17:49:49.546Z,15.60
2023-04-14T17:53:02.358Z,15.40
2023-04-14T17:56:06.031Z,15.30
2023-04-14T17:59:08.436Z,15.30
2023-04-14T18:02:11.270Z,15.00
2023-04-14T18:05:13.560Z,14.90
2023-04-14T18:08:16.434Z,14.90
2023-04-14T18:11:21.397Z,14.80
2023-04-14T18:14:25.530Z,14.80
2023-04-14T18:17:27.977Z,14.60
2023-04-14T18:20:30.359Z,14.60
2023-04-14T18:23:33.147Z,14.40
2023-04-14T18:29:43.304Z,13.80
2023-04-14T18:32:48.518Z,13.40
2023-04-14T18:35:59.008Z,13.40
2023-04-14T18:39:01.750Z,13.50
2023-04-14T18:42:06.764Z,13.40
2023-04-14T18:45:10.927Z,13.20
2023-04-14T18:48:16.751Z,13.40
2023-04-14T18:51:19.010Z,13.10
2023-04-14T18:54:22.241Z,13.00
2023-04-14T18:57:24.592Z,13.00
2023-04-14T19:00:28.590Z,12.90
2023-04-14T19:03:30.827Z,12.50
2023-04-14T19:06:35.558Z,12.30
2023-04-14T19:09:42.105Z,12.00
2023-04-14T19:12:45.225Z,11.70
2023-04-14T19:15:47.390Z,11.60
2023-04-14T19:18:49.856Z,11.60
2023-04-14T19:21:52.085Z,11.60
2023-04-14T19:24:54.458Z,11.70
2023-04-14T19:28:00.160Z,11.60
2023-04-14T19:31:03.508Z,11.70
2023-04-14T19:34:06.488Z,11.70
2023-04-14T19:37:15.648Z,11.60
2023-04-14T19:40:18.731Z,10.90
2023-04-14T19:43:25.033Z,11.10
2023-04-14T19:46:28.749Z,11.30
2023-04-14T19:49:31.095Z,11.10
2023-04-14T19:52:36.906Z,11.00
2023-04-14T19:55:42.897Z,10.70
2023-04-14T19:58:45.088Z,10.40
2023-04-14T20:01:49.200Z,10.50
2023-04-14T20:04:51.408Z,10.20
2023-04-14T20:11:02.799Z,9.90
2023-04-14T20:14:05.492Z,9.70
2023-04-14T20:17:07.823Z,9.50
2023-04-14T20:20:10.285Z,9.80
2023-04-14T20:23:12.631Z,9.90
2023-04-14T20:26:14.848Z,9.90
2023-04-14T20:29:17.119Z,9.80
2023-04-14T20:32:20.932Z,9.40
2023-04-14T20:35:23.213Z,9.70
2023-04-14T20:38:25.384Z,9.90
2023-04-14T20:41:27.440Z,9.70
2023-04-14T20:44:30.014Z,9.80
2023-04-14T20:47:32.201Z,9.70
2023-04-14T20:50:34.424Z,9.70
2023-04-14T20:53:36.420Z,9.60
2023-04-14T20:56:40.436Z,9.50
2023-04-14T20:59:42.504Z,9.50
2023-04-14T21:02:46.095Z,9.40
2023-04-14T21:05:49.298Z,9.40
2023-04-14T21:08:51.371Z,9.40
2023-04-14T21:12:15.587Z,9.40
2023-04-14T21:15:46.901Z,9.40
2023-04-14T21:18:37.819Z,9.50
2023-04-14T21:21:40.582Z,9.40
2023-04-14T21:24:42.614Z,9.40
2023-04-14T21:27:44.872Z,9.40
2023-04-14T21:30:46.826Z,9.40
2023-04-14T21:33:49.392Z,9.30
2023-04-14T21:36:51.444Z,9.30
2023-04-14T21:39:53.505Z,9.30
2023-04-14T21:42:55.496Z,9.20
2023-04-14T21:45:58.030Z,9.20
2023-04-14T21:49:00.637Z,9.10
2023-04-14T21:52:02.917Z,9.10
2023-04-14T21:55:05.424Z,9.20
2023-04-14T21:58:07.491Z,9.00
2023-04-14T22:01:09.881Z,8.80
2023-04-14T22:04:19.065Z,8.40
2023-04-14T22:07:27.395Z,8.40
2023-04-14T22:10:29.406Z,8.10
2023-04-14T22:13:31.445Z,8.00
2023-04-14T22:16:34.980Z,7.80
2023-04-14T22:19:37.016Z,8.00
2023-04-14T22:22:41.281Z,8.10
2023-04-14T22:25:44.021Z,8.10
2023-04-14T22:28:45.982Z,8.20
2023-04-14T22:31:47.978Z,8.20
2023-04-14T22:34:49.969Z,8.20
2023-04-14T22:37:51.964Z,8.00
2023-04-14T22:40:55.259Z,7.90
2023-04-14T22:43:57.453Z,8.00
2023-04-14T22:46:59.539Z,8.10
2023-04-14T22:50:02.827Z,8.10
2023-04-14T22:53:05.748Z,8.10
2023-04-14T22:56:08.120Z,7.90
2023-04-14T22:59:10.322Z,7.90
2023-04-14T23:02:12.681Z,8.10
2023-04-14T23:05:14.943Z,7.80
2023-04-14T23:08:16.982Z,8.00
2023-04-14T23:11:20.764Z,7.90
2023-04-14T23:14:24.640Z,7.90
2023-04-14T23:17:26.915Z,7.90
2023-04-14T23:20:29.243Z,7.90
2023-04-14T23:23:32.286Z,7.80
2023-04-14T23:26:34.544Z,7.80
2023-04-14T23:29:37.295Z,7.70
2023-04-14T23:32:40.331Z,7.60
2023-04-14T23:35:42.353Z,7.60
2023-04-14T23:38:45.207Z,7.60
2023-04-14T23:41:47.647Z,7.50
2023-04-14T23:44:49.546Z,7.50
2023-04-14T23:47:51.654Z,7.60
2023-04-14T23:50:59.981Z,7.60
2023-04-14T23:54:18.129Z,7.50
2023-04-14T23:57:20.293Z,7.60
